Time;durP1;ratioP1;P1;durP2;ratioP2;P2;SDS_P1;SDS_P2;PMS_P1;PMS_P2;Temp;Humidity;BMP_temperature;BMP_pressure;BME280_temperature;BME280_humidity;BME280_pressure;Samples;Min_cycle;Max_cycle;Signal;HPM_P1;HPM_P2
2022/04/24 00:02:24;;;;;;;6.90;3.60;;;;;;;;;;5049784;28;20033;-79
2022/04/24 00:04:50;;;;;;;7.68;3.85;;;;;;;;;;5049138;28;20021;-79
2022/04/24 00:07:16;;;;;;;8.95;3.97;;;;;;;;;;5051554;28;20028;-79
2022/04/24 00:09:42;;;;;;;6.97;3.40;;;;;;;;;;5039920;28;20029;-79
2022/04/24 00:12:09;;;;;;;7.63;2.97;;;;;;;;;;5048169;28;20094;-79
2022/04/24 00:14:36;;;;;;;4.65;2.58;;;;;;;;;;5042732;28;20025;-78
2022/04/24 00:17:02;;;;;;;5.70;3.40;;;;;;;;;;5048250;28;20029;-77
2022/04/24 00:19:28;;;;;;;6.78;3.70;;;;;;;;;;5044644;28;20036;-78
2022/04/24 00:21:55;;;;;;;8.43;4.15;;;;;;;;;;5045860;28;20540;-79
2022/04/24 00:24:24;;;;;;;10.85;4.82;;;;;;;;;;5046130;28;20082;-79
2022/04/24 00:26:50;;;;;;;10.05;5.20;;;;;;;;;;5047827;28;20027;-78
2022/04/24 00:29:16;;;;;;;11.60;5.32;;;;;;;;;;5046968;28;20155;-78
2022/04/24 00:31:42;;;;;;;8.55;4.65;;;;;;;;;;5046710;28;20147;-79
2022/04/24 00:34:08;;;;;;;8.27;3.92;;;;;;;;;;5049043;28;20091;-78
2022/04/24 00:36:34;;;;;;;9.60;4.25;;;;;;;;;;5044807;28;20481;-78
2022/04/24 00:39:00;;;;;;;7.68;3.42;;;;;;;;;;5046347;28;20028;-79
2022/04/24 00:41:26;;;;;;;7.93;3.95;;;;;;;;;;5048198;28;21940;-78
2022/04/24 00:43:52;;;;;;;7.97;4.35;;;;;;;;;;5049233;28;20090;-77
2022/04/24 00:46:50;;;;;;;11.27;4.75;;;8.50;99.90;;;;;;5044080;28;20408;-79
2022/04/24 00:49:16;;;;;;;8.75;4.03;;;;;;;;;;5046574;28;20033;-78
2022/04/24 00:51:43;;;;;;;6.05;3.17;;;;;;;;;;5049922;28;20047;-78
2022/04/24 00:54:09;;;;;;;8.88;4.40;;;;;;;;;;5046556;28;20026;-79
2022/04/24 00:56:37;;;;;;;6.85;4.13;;;;;;;;;;5048655;28;20037;-79
2022/04/24 00:59:04;;;;;;;8.45;4.32;;;;;;;;;;5042861;28;20397;-79
2022/04/24 01:01:31;;;;;;;9.18;5.20;;;;;;;;;;5045641;28;20029;-79
2022/04/24 01:04:02;;;;;;;10.15;5.18;;;;;;;;;;5047784;28;20388;-78
2022/04/24 01:06:30;;;;;;;8.82;4.32;;;;;;;;;;5048613;28;20821;-79
2022/04/24 01:08:55;;;;;;;9.73;4.38;;;;;;;;;;5048909;28;20296;-78
2022/04/24 01:11:21;;;;;;;7.18;3.83;;;;;;;;;;5047684;28;20104;-78
2022/04/24 01:13:47;;;;;;;6.78;3.15;;;;;;;;;;5047133;28;20032;-79
2022/04/24 01:16:13;;;;;;;7.85;4.43;;;;;;;;;;5045369;28;20116;-79
2022/04/24 01:18:41;;;;;;;9.60;4.68;;;;;;;;;;5049526;28;20028;-78
2022/04/24 01:21:10;;;;;;;8.48;3.53;;;;;;;;;;5048409;28;20056;-79
2022/04/24 01:23:38;;;;;;;9.25;4.53;;;;;;;;;;5044167;28;20039;-79
2022/04/24 01:26:05;;;;;;;11.48;5.15;;;;;;;;;;5048051;28;20019;-79
2022/04/24 01:28:31;;;;;;;8.93;3.90;;;;;;;;;;5047284;28;20031;-78
2022/04/24 01:30:57;;;;;;;14.07;4.43;;;;;;;;;;5043368;28;20041;-79
2022/04/24 01:33:23;;;;;;;9.88;4.68;;;;;;;;;;5049763;28;20102;-78
2022/04/24 01:35:49;;;;;;;11.45;4.68;;;;;;;;;;5047491;28;20032;-78
2022/04/24 01:38:15;;;;;;;9.75;4.57;;;;;;;;;;5049721;28;20063;-78
2022/04/24 01:40:41;;;;;;;8.43;3.78;;;;;;;;;;5047879;28;20021;-78
2022/04/24 01:43:07;;;;;;;8.30;4.78;;;;;;;;;;5046469;28;20104;-79
2022/04/24 01:45:33;;;;;;;11.05;5.28;;;;;;;;;;5048742;28;20028;-78
2022/04/24 01:47:59;;;;;;;10.73;4.43;;;;;;;;;;5046225;28;20596;-79
2022/04/24 01:50:25;;;;;;;10.48;4.70;;;;;;;;;;5047496;28;20800;-78
2022/04/24 01:52:51;;;;;;;9.82;5.13;;;;;;;;;;5042472;28;20501;-79
2022/04/24 01:55:18;;;;;;;9.82;3.95;;;;;;;;;;5040973;28;20021;-78
2022/04/24 01:57:44;;;;;;;15.13;4.85;;;;;;;;;;5051371;28;20025;-79
2022/04/24 02:00:10;;;;;;;8.15;4.10;;;;;;;;;;5043235;28;20032;-79
2022/04/24 02:02:36;;;;;;;12.20;5.18;;;;;;;;;;5046457;28;20093;-79
2022/04/24 02:05:02;;;;;;;9.18;5.25;;;;;;;;;;5046120;28;20128;-78
2022/04/24 02:07:28;;;;;;;8.95;4.82;;;;;;;;;;5049088;28;20013;-78
2022/04/24 02:09:54;;;;;;;9.52;5.25;;;;;;;;;;5046855;28;20025;-78
2022/04/24 02:12:20;;;;;;;9.32;4.68;;;;;;;;;;5044446;28;20064;-79
2022/04/24 02:14:46;;;;;;;7.38;4.07;;;;;;;;;;5045816;28;20239;-78
2022/04/24 02:17:12;;;;;;;9.82;4.78;;;;;;;;;;5045924;28;20076;-78
2022/04/24 02:19:38;;;;;;;9.95;4.05;;;;;;;;;;5051662;28;20093;-79
2022/04/24 02:22:04;;;;;;;10.18;4.32;;;;;;;;;;5050148;28;20032;-79
2022/04/24 02:24:30;;;;;;;11.32;5.47;;;;;;;;;;5046110;28;20094;-78
2022/04/24 02:26:56;;;;;;;9.70;4.63;;;;;;;;;;5050124;28;20041;-79
2022/04/24 02:29:22;;;;;;;10.30;4.70;;;;;;;;;;5043900;28;20100;-79
2022/04/24 02:31:48;;;;;;;10.88;4.65;;;;;;;;;;5047062;28;20051;-79
2022/04/24 02:34:14;;;;;;;7.60;3.75;;;;;;;;;;5040967;28;21694;-78
2022/04/24 02:36:40;;;;;;;6.72;3.70;;;;;;;;;;5050703;28;20032;-78
2022/04/24 02:39:06;;;;;;;6.07;3.75;;;;;;;;;;5045007;28;20512;-79
2022/04/24 02:41:32;;;;;;;8.10;4.07;;;;;;;;;;5052173;28;20037;-79
2022/04/24 02:43:58;;;;;;;10.73;3.95;;;;;;;;;;5045523;28;20018;-78
2022/04/24 02:46:24;;;;;;;10.15;4.25;;;;;;;;;;5042458;28;20029;-79
2022/04/24 02:48:50;;;;;;;6.88;3.97;;;;;;;;;;5050462;28;20538;-79
2022/04/24 02:51:16;;;;;;;6.93;3.85;;;;;;;;;;5045379;28;20044;-79
2022/04/24 02:53:42;;;;;;;7.43;4.18;;;;;;;;;;5044839;28;20039;-79
2022/04/24 02:56:08;;;;;;;7.50;3.72;;;8.80;99.90;;;;;;5041957;28;20120;-80
2022/04/24 02:58:34;;;;;;;7.38;4.13;;;;;;;;;;5043439;28;20033;-79
2022/04/24 03:01:00;;;;;;;11.73;5.90;;;;;;;;;;5042621;28;20406;-79
2022/04/24 03:03:26;;;;;;;12.38;5.47;;;;;;;;;;5048614;28;20087;-78
2022/04/24 03:05:52;;;;;;;10.38;4.00;;;;;;;;;;5048140;28;20616;-78
2022/04/24 03:08:18;;;;;;;9.32;4.05;;;;;;;;;;5045767;28;20124;-80
2022/04/24 03:10:44;;;;;;;10.90;4.78;;;;;;;;;;5050278;28;20025;-79
2022/04/24 03:13:11;;;;;;;7.97;4.18;;;;;;;;;;5048719;28;20044;-79
2022/04/24 03:15:38;;;;;;;7.47;3.50;;;;;;;;;;5045744;28;20021;-80
2022/04/24 03:18:04;;;;;;;6.75;3.78;;;9.90;99.90;;;;;;5045962;28;20035;-80
2022/04/24 03:20:31;;;;;;;7.78;3.85;;;;;;;;;;5046737;28;20033;-80
2022/04/24 03:22:57;;;;;;;8.40;4.38;;;;;;;;;;5045232;28;20025;-79
2022/04/24 03:25:23;;;;;;;7.13;3.83;;;;;;;;;;5049474;28;20463;-79
2022/04/24 03:27:49;;;;;;;9.48;4.18;;;;;;;;;;5046797;28;20033;-79
2022/04/24 03:30:15;;;;;;;8.68;3.78;;;;;;;;;;5036720;28;20060;-79
2022/04/24 03:32:41;;;;;;;7.05;3.85;;;;;;;;;;5045900;28;20033;-79
2022/04/24 03:35:08;;;;;;;8.20;3.75;;;;;;;;;;5046344;28;20079;-80
2022/04/24 03:37:35;;;;;;;8.20;3.63;;;;;;;;;;5045289;28;20110;-79
2022/04/24 03:40:01;;;;;;;7.53;4.20;;;;;;;;;;5044556;28;20021;-78
2022/04/24 03:42:27;;;;;;;6.93;4.07;;;;;;;;;;5045454;28;20091;-78
2022/04/24 03:44:59;;;;;;;8.43;4.35;;;;;;;;;;5045055;28;20100;-79
2022/04/24 03:47:26;;;;;;;7.85;3.55;;;;;;;;;;5044064;28;20496;-78
2022/04/24 03:49:52;;;;;;;6.72;4.18;;;;;;;;;;5040593;28;20128;-78
2022/04/24 03:52:18;;;;;;;6.18;4.13;;;;;;;;;;5040684;28;20669;-79
2022/04/24 03:54:44;;;;;;;7.75;3.78;;;;;;;;;;5043184;28;20108;-79
2022/04/24 03:57:10;;;;;;;7.55;3.63;;;;;;;;;;5043399;28;20059;-78
2022/04/24 03:59:36;;;;;;;8.05;4.38;;;;;;;;;;5043862;28;20073;-79
2022/04/24 04:02:02;;;;;;;7.68;3.42;;;;;;;;;;5041105;28;20052;-79
2022/04/24 04:04:28;;;;;;;6.65;3.78;;;;;;;;;;5045096;28;20029;-79
2022/04/24 04:06:54;;;;;;;8.48;4.18;;;;;;;;;;5042707;28;20389;-78
2022/04/24 04:09:20;;;;;;;9.13;4.82;;;;;;;;;;5035612;28;20059;-79
2022/04/24 04:11:46;;;;;;;6.82;4.00;;;;;;;;;;5039388;28;20511;-78
2022/04/24 04:14:12;;;;;;;8.93;4.40;;;;;;;;;;5040727;28;20122;-78
2022/04/24 04:16:38;;;;;;;6.25;4.13;;;;;;;;;;5039983;28;20036;-79
2022/04/24 04:19:04;;;;;;;8.88;5.15;;;;;;;;;;5044389;28;20037;-78
2022/04/24 04:21:30;;;;;;;8.95;4.40;;;;;;;;;;5043445;28;20025;-79
2022/04/24 04:23:56;;;;;;;7.53;4.28;;;;;;;;;;5045769;28;20494;-78
2022/04/24 04:26:22;;;;;;;9.70;4.32;;;;;;;;;;5044294;28;20067;-79
2022/04/24 04:28:48;;;;;;;10.82;4.20;;;;;;;;;;5041784;28;20022;-79
2022/04/24 04:31:15;;;;;;;10.60;4.25;;;;;;;;;;5041813;28;20113;-79
2022/04/24 04:33:41;;;;;;;8.15;4.85;;;;;;;;;;5043476;28;20036;-78
2022/04/24 04:36:08;;;;;;;10.30;5.72;;;;;;;;;;5045585;28;20133;-79
2022/04/24 04:38:34;;;;;;;8.77;4.30;;;;;;;;;;5048693;28;20576;-79
2022/04/24 04:41:00;;;;;;;12.30;5.90;;;;;;;;;;5045627;28;20025;-78
2022/04/24 04:43:27;;;;;;;12.15;5.00;;;;;;;;;;5052841;28;20028;-79
2022/04/24 04:45:53;;;;;;;12.13;5.75;;;;;;;;;;5045617;28;20029;-79
2022/04/24 04:48:19;;;;;;;9.80;4.75;;;;;;;;;;5045842;28;20057;-79
2022/04/24 04:50:45;;;;;;;9.35;4.38;;;;;;;;;;5048730;28;20044;-78
2022/04/24 04:53:11;;;;;;;9.35;5.00;;;;;;;;;;5047375;28;20025;-79
2022/04/24 04:55:38;;;;;;;11.63;5.47;;;;;;;;;;5047250;28;20036;-78
2022/04/24 04:58:04;;;;;;;9.60;4.80;;;;;;;;;;5044166;28;20036;-80
2022/04/24 05:00:30;;;;;;;10.35;5.47;;;;;;;;;;5048432;28;20029;-80
2022/04/24 05:02:56;;;;;;;9.95;4.95;;;;;;;;;;5048267;28;20047;-79
2022/04/24 05:05:22;;;;;;;10.90;5.05;;;;;;;;;;5050231;28;20020;-79
2022/04/24 05:07:48;;;;;;;10.52;5.38;;;;;;;;;;5050029;28;20025;-79
2022/04/24 05:10:14;;;;;;;9.45;5.45;;;;;;;;;;5040654;28;21468;-79
2022/04/24 05:12:40;;;;;;;9.57;4.95;;;;;;;;;;5033170;28;20071;-78
2022/04/24 05:15:12;;;;;;;7.90;4.68;;;;;;;;;;5037130;28;20034;-78
2022/04/24 05:17:38;;;;;;;15.95;4.80;;;;;;;;;;5039029;28;20539;-78
2022/04/24 05:20:04;;;;;;;10.43;5.43;;;;;;;;;;5043628;28;20026;-79
2022/04/24 05:22:30;;;;;;;12.85;6.95;;;;;;;;;;5045862;28;20667;-79
2022/04/24 05:24:56;;;;;;;10.48;5.25;;;;;;;;;;5045131;28;20033;-78
2022/04/24 05:27:22;;;;;;;13.88;6.13;;;;;;;;;;5041749;28;20037;-78
2022/04/24 05:29:48;;;;;;;13.57;6.72;;;;;;;;;;5045201;28;20029;-79
2022/04/24 05:32:15;;;;;;;16.25;7.40;;;;;;;;;;5043322;28;20041;-79
2022/04/24 05:34:41;;;;;;;13.63;6.18;;;;;;;;;;5037767;28;20021;-80
2022/04/24 05:37:07;;;;;;;17.42;6.32;;;;;;;;;;5044947;28;20063;-80
2022/04/24 05:39:33;;;;;;;10.88;5.90;;;;;;;;;;5044199;28;20586;-79
2022/04/24 05:41:59;;;;;;;11.27;5.78;;;;;;;;;;5040095;28;20032;-80
2022/04/24 05:44:25;;;;;;;11.80;5.28;;;;;;;;;;5045119;28;20083;-79
2022/04/24 05:46:51;;;;;;;13.35;6.05;;;;;;;;;;5042231;28;20047;-79
2022/04/24 05:49:17;;;;;;;11.02;6.00;;;;;;;;;;5041009;28;20025;-79
2022/04/24 05:51:43;;;;;;;11.07;5.55;;;;;;;;;;5039285;28;20400;-79
2022/04/24 05:54:10;;;;;;;11.13;5.65;;;;;;;;;;5039646;28;20025;-80
2022/04/24 05:56:35;;;;;;;14.50;4.65;;;;;;;;;;5036994;28;20108;-78
2022/04/24 05:59:01;;;;;;;11.30;4.95;;;;;;;;;;5037783;28;20570;-79
2022/04/24 06:01:27;;;;;;;10.40;6.07;;;;;;;;;;5041746;28;20021;-79
2022/04/24 06:03:53;;;;;;;15.68;6.20;;;;;;;;;;5047237;28;20082;-79
2022/04/24 06:06:19;;;;;;;10.45;5.90;;;;;;;;;;5038516;28;20024;-80
2022/04/24 06:08:45;;;;;;;10.77;5.95;;;;;;;;;;5046938;28;20032;-78
2022/04/24 06:11:11;;;;;;;9.70;5.75;;;;;;;;;;5039282;28;20040;-78
2022/04/24 06:13:39;;;;;;;12.65;6.78;;;;;;;;;;5044587;28;20013;-79
2022/04/24 06:16:05;;;;;;;11.77;5.03;;;;;;;;;;5024040;28;20025;-78
2022/04/24 06:18:31;;;;;;;11.45;5.85;;;;;;;;;;5034914;28;20032;-78
2022/04/24 06:20:57;;;;;;;12.48;4.82;;;;;;;;;;5039990;28;20404;-78
2022/04/24 06:23:25;;;;;;;11.68;5.80;;;;;;;;;;5043249;28;20041;-78
2022/04/24 06:25:51;;;;;;;10.95;5.07;;;;;;;;;;5041363;28;20025;-78
2022/04/24 06:28:17;;;;;;;10.38;5.40;;;;;;;;;;5040820;28;20412;-77
2022/04/24 06:30:43;;;;;;;9.70;4.82;;;;;;;;;;5044919;28;20074;-78
2022/04/24 06:33:10;;;;;;;10.60;6.25;;;;;;;;;;5044167;28;20500;-78
2022/04/24 06:35:36;;;;;;;14.60;6.75;;;;;;;;;;5035660;28;23103;-77
2022/04/24 06:38:02;;;;;;;10.50;5.60;;;;;;;;;;5038679;28;20043;-78
2022/04/24 06:40:28;;;;;;;9.15;4.90;;;;;;;;;;5034594;28;20115;-78
2022/04/24 06:43:04;;;;;;;10.77;4.68;;;;;;;;;;5041273;28;20480;-77
2022/04/24 06:45:32;;;;;;;7.85;3.10;;;;;;;;;;5038207;28;20036;-78
2022/04/24 06:47:59;;;;;;;6.03;3.22;;;;;;;;;;5041683;28;20025;-77
2022/04/24 06:50:26;;;;;;;2.88;1.23;;;;;;;;;;5040243;28;20037;-78
2022/04/24 06:53:02;;;;;;;2.88;1.40;;;;;;;;;;5046407;28;20856;-78
2022/04/24 06:55:29;;;;;;;3.75;1.60;;;;;;;;;;5037857;28;20060;-78
2022/04/24 06:57:56;;;;;;;5.03;1.35;;;;;;;;;;5047459;28;20021;-78
2022/04/24 07:00:22;;;;;;;2.75;1.45;;;;;;;;;;5038054;28;20180;-77
2022/04/24 07:02:49;;;;;;;2.58;0.73;;;;;;;;;;5045911;28;20029;-78
2022/04/24 07:05:15;;;;;;;2.55;0.80;;;;;;;;;;5040835;28;20107;-77
2022/04/24 07:07:41;;;;;;;2.33;1.00;;;;;;;;;;5038974;28;20476;-77
2022/04/24 07:10:08;;;;;;;2.92;1.55;;;;;;;;;;5039298;28;22047;-77
2022/04/24 07:12:54;;;;;;;2.58;0.85;;;;;;;;;;5040953;28;20068;-78
2022/04/24 07:15:21;;;;;;;1.77;0.50;;;;;;;;;;5035585;28;20033;-77
2022/04/24 07:17:47;;;;;;;2.55;0.65;;;;;;;;;;5044838;28;20025;-77
2022/04/24 07:20:14;;;;;;;0.63;0.40;;;;;;;;;;5044410;28;20116;-78
2022/04/24 07:22:47;;;;;;;0.63;0.32;;;;;;;;;;5039718;28;20029;-79
2022/04/24 07:25:13;;;;;;;;;;;;;;;;;;5038683;28;20048;-78
2022/04/24 07:27:39;;;;;;;0.73;0.30;;;;;;;;;;5043243;28;20384;-78
2022/04/24 07:30:13;;;;;;;1.58;0.60;;;;;;;;;;5040307;28;20118;-78
2022/04/24 07:32:39;;;;;;;0.40;0.17;;;;;;;;;;5044900;28;20041;-78
2022/04/24 07:35:05;;;;;;;1.02;0.50;;;9.70;99.90;;;;;;5050541;28;20021;-78
2022/04/24 07:37:34;;;;;;;0.90;0.38;;;;;;;;;;5041538;28;20119;-78
2022/04/24 07:40:00;;;;;;;1.58;0.20;;;;;;;;;;5045761;28;20021;-78
2022/04/24 07:42:26;;;;;;;1.02;0.45;;;;;;;;;;5053801;28;20059;-77
2022/04/24 07:44:52;;;;;;;1.27;0.68;;;;;;;;;;5051847;28;20032;-77
2022/04/24 07:47:18;;;;;;;1.48;0.95;;;;;;;;;;5045551;28;20035;-78
2022/04/24 07:49:44;;;;;;;1.90;0.50;;;;;;;;;;5046214;28;20025;-79
2022/04/24 07:52:10;;;;;;;2.67;0.80;;;;;;;;;;5046598;28;20029;-78
2022/04/24 07:54:36;;;;;;;1.27;0.80;;;;;;;;;;5044202;28;20049;-77
2022/04/24 07:57:02;;;;;;;1.13;0.40;;;;;;;;;;5039384;28;20029;-78
2022/04/24 07:59:28;;;;;;;1.08;0.55;;;;;;;;;;5043690;28;20078;-77
2022/04/24 08:01:53;;;;;;;0.55;0.28;;;;;;;;;;5031679;28;20029;-78
2022/04/24 08:04:19;;;;;;;0.77;0.25;;;10.10;99.90;;;;;;5042188;28;20060;-78
2022/04/24 08:06:45;;;;;;;0.93;0.47;;;;;;;;;;5038573;28;20094;-78
2022/04/24 08:09:11;;;;;;;0.75;0.13;;;;;;;;;;5044258;28;20029;-78
2022/04/24 08:11:37;;;;;;;0.47;0.15;;;;;;;;;;5049353;28;20041;-77
2022/04/24 08:14:03;;;;;;;0.50;0.30;;;;;;;;;;5050564;28;20025;-77
2022/04/24 08:16:30;;;;;;;1.02;0.13;;;;;;;;;;5036558;28;20029;-78
2022/04/24 08:19:00;;;;;;;0.20;0.20;;;;;;;;;;5046276;28;20068;-77
2022/04/24 08:21:26;;;;;;;0.00;0.00;;;;;;;;;;5041484;28;20111;-77
2022/04/24 08:23:52;;;;;;;0.85;0.30;;;;;;;;;;5041608;28;20437;-78
2022/04/24 08:26:18;;;;;;;0.20;0.10;;;;;;;;;;5048240;28;20021;-78
2022/04/24 08:28:44;;;;;;;4.47;0.40;;;;;;;;;;5048450;28;20033;-77
2022/04/24 08:31:10;;;;;;;0.22;0.10;;;;;;;;;;5046048;28;20162;-78
2022/04/24 08:33:36;;;;;;;0.28;0.10;;;;;;;;;;5047739;28;20033;-77
2022/04/24 08:36:02;;;;;;;0.30;0.10;;;;;;;;;;5050140;28;20029;-77
2022/04/24 08:38:29;;;;;;;0.85;0.10;;;;;;;;;;5038182;28;20115;-77
2022/04/24 08:40:55;;;;;;;0.10;0.10;;;;;;;;;;5044996;28;20035;-77
2022/04/24 08:43:24;;;;;;;0.15;0.00;;;;;;;;;;5042445;28;20038;-77
2022/04/24 08:45:52;;;;;;;0.13;0.13;;;;;;;;;;5045780;28;20035;-77
2022/04/24 08:48:19;;;;;;;0.10;0.10;;;;;;;;;;5046547;28;20103;-78
2022/04/24 08:50:45;;;;;;;0.10;0.10;;;;;;;;;;5044955;28;20037;-79
2022/04/24 08:53:11;;;;;;;1.23;0.55;;;;;;;;;;5043531;28;20041;-79
2022/04/24 08:55:38;;;;;;;2.92;0.28;;;;;;;;;;5050182;28;20021;-78
2022/04/24 08:58:05;;;;;;;0.95;0.30;;;;;;;;;;5045312;28;20033;-78
2022/04/24 09:00:31;;;;;;;0.65;0.28;;;;;;;;;;5042391;28;20025;-78
2022/04/24 09:02:58;;;;;;;0.28;0.10;;;;;;;;;;5046702;28;20029;-78
2022/04/24 09:05:24;;;;;;;0.20;0.08;;;;;;;;;;5049764;28;20033;-78
2022/04/24 09:07:53;;;;;;;2.22;0.75;;;;;;;;;;5047136;28;20398;-77
2022/04/24 09:10:19;;;;;;;0.10;0.00;;;;;;;;;;5044873;28;20094;-77
2022/04/24 09:12:45;;;;;;;0.25;0.10;;;;;;;;;;5047710;28;20405;-79
2022/04/24 09:15:18;;;;;;;0.20;0.17;;;;;;;;;;5046565;28;20025;-79
2022/04/24 09:17:44;;;;;;;0.60;0.20;;;;;;;;;;5044375;28;20170;-79
2022/04/24 09:20:17;;;;;;;0.32;0.10;;;9.00;99.90;;;;;;5048968;28;20033;-79
2022/04/24 09:22:44;;;;;;;2.03;1.30;;;;;;;;;;5045202;28;20072;-79
2022/04/24 09:25:12;;;;;;;9.10;4.68;;;;;;;;;;5048355;28;20053;-79
2022/04/24 09:27:38;;;;;;;8.57;4.05;;;;;;;;;;5045398;28;20116;-79
2022/04/24 09:30:14;;;;;;;3.20;1.15;;;;;;;;;;5043154;28;20117;-79
2022/04/24 09:32:47;;;;;;;2.85;1.05;;;;;;;;;;5048006;28;20037;-76
2022/04/24 09:35:23;;;;;;;12.88;5.15;;;;;;;;;;5049052;28;20087;-79
2022/04/24 09:37:49;;;;;;;2.80;0.90;;;;;;;;;;5049792;28;20056;-78
2022/04/24 09:40:15;;;;;;;7.10;2.10;;;;;;;;;;5049221;28;20358;-79
2022/04/24 09:42:51;;;;;;;11.77;4.38;;;;;;;;;;5049790;28;20044;-81
2022/04/24 09:45:23;;;;;;;2.85;1.67;;;;;;;;;;5042852;28;20108;-80
2022/04/24 09:47:56;;;;;;;1.40;0.88;;;;;;;;;;5047628;28;20033;-79
2022/04/24 09:50:22;;;;;;;;;;;;;;;;;;5050984;28;20545;-79
2022/04/24 09:52:51;;;;;;;4.53;0.73;;;;;;;;;;5047913;28;19921;-79
2022/04/24 09:55:17;;;;;;;1.77;0.60;;;;;;;;;;5056041;28;20055;-79
2022/04/24 09:57:43;;;;;;;1.88;1.00;;;;;;;;;;5056800;28;20076;-78
2022/04/24 10:00:10;;;;;;;2.33;1.00;;;;;;;;;;5045336;28;20039;-79
2022/04/24 10:02:36;;;;;;;3.83;1.50;;;;;;;;;;5050799;28;20041;-79
2022/04/24 10:05:04;;;;;;;2.35;1.08;;;;;;;;;;5042691;28;20089;-78
2022/04/24 10:07:30;;;;;;;3.22;1.90;;;;;;;;;;5042030;28;20248;-79
2022/04/24 10:09:56;;;;;;;3.53;2.08;;;;;;;;;;5048552;28;20037;-79
2022/04/24 10:12:25;;;;;;;3.80;2.10;;;10.20;99.90;;;;;;5045780;28;20037;-78
2022/04/24 10:14:53;;;;;;;4.28;2.00;;;;;;;;;;5048745;28;20029;-79
2022/04/24 10:17:22;;;;;;;6.95;2.45;;;;;;;;;;5048338;28;20029;-78
2022/04/24 10:19:51;;;;;;;4.00;2.30;;;;;;;;;;5048475;28;20025;-79
2022/04/24 10:22:26;;;;;;;9.23;5.78;;;;;;;;;;5050181;28;20067;-78
2022/04/24 10:24:58;;;;;;;4.63;2.45;;;;;;;;;;5042137;28;20111;-79
2022/04/24 10:27:35;;;;;;;7.07;4.10;;;;;;;;;;5048008;28;20037;-79
2022/04/24 10:30:01;;;;;;;7.60;3.88;;;;;;;;;;5044610;28;20138;-79
2022/04/24 10:32:30;;;;;;;6.40;3.33;;;;;;;;;;5051139;28;20041;-79
2022/04/24 10:34:57;;;;;;;7.97;3.25;;;;;;;;;;5043601;28;20025;-79
2022/04/24 10:37:26;;;;;;;7.53;3.38;;;;;;;;;;5046910;28;20526;-79
2022/04/24 10:39:57;;;;;;;4.72;2.83;;;;;;;;;;5048458;28;20135;-80
2022/04/24 10:42:33;;;;;;;7.65;3.85;;;;;;;;;;5050409;28;20489;-78
2022/04/24 10:45:09;;;;;;;7.05;3.33;;;;;;;;;;5041390;28;20036;-79
2022/04/24 10:47:42;;;;;;;11.73;6.15;;;;;;;;;;5037854;28;20080;-78
2022/04/24 10:50:09;;;;;;;7.93;3.45;;;;;;;;;;5044757;28;20389;-78
2022/04/24 10:52:39;;;;;;;8.20;3.55;;;;;;;;;;5044135;28;20051;-78
2022/04/24 10:55:13;;;;;;;9.50;4.10;;;;;;;;;;5044855;28;20017;-78
2022/04/24 10:57:47;;;;;;;7.15;3.92;;;;;;;;;;5046197;28;20021;-78
2022/04/24 11:00:22;;;;;;;9.07;3.47;;;;;;;;;;5030870;28;20512;-78
2022/04/24 11:02:49;;;;;;;9.90;4.40;;;;;;;;;;5041400;28;20101;-78
2022/04/24 11:05:19;;;;;;;7.38;3.97;;;;;;;;;;5044742;28;20473;-78
2022/04/24 11:07:45;;;;;;;6.13;3.63;;;;;;;;;;5048512;28;20425;-79
2022/04/24 11:10:11;;;;;;;7.68;4.13;;;10.70;99.90;;;;;;5047518;28;20028;-78
2022/04/24 11:12:38;;;;;;;16.40;8.23;;;;;;;;;;5046331;28;20033;-78
2022/04/24 11:15:05;;;;;;;7.97;5.15;;;;;;;;;;5046651;28;20033;-78
2022/04/24 11:17:31;;;;;;;8.07;3.80;;;;;;;;;;5041120;28;20083;-78
2022/04/24 11:20:03;;;;;;;6.10;3.65;;;;;;;;;;5046563;28;20566;-78
2022/04/24 11:22:30;;;;;;;8.38;3.38;;;;;;;;;;5045653;28;20025;-78
2022/04/24 11:24:56;;;;;;;7.05;3.75;;;;;;;;;;5047351;28;20033;-78
2022/04/24 11:27:25;;;;;;;8.70;4.70;;;;;;;;;;5041304;28;20052;-77
2022/04/24 11:29:51;;;;;;;9.80;4.82;;;;;;;;;;5038138;28;20037;-78
2022/04/24 11:32:18;;;;;;;7.75;3.85;;;;;;;;;;5043525;28;20037;-78
2022/04/24 11:34:45;;;;;;;5.68;3.35;;;;;;;;;;5049400;28;20049;-78
2022/04/24 11:37:11;;;;;;;8.25;3.60;;;;;;;;;;5048304;28;20036;-77
2022/04/24 11:39:40;;;;;;;5.60;3.05;;;;;;;;;;5048136;28;20103;-77
2022/04/24 11:42:06;;;;;;;5.05;3.28;;;;;;;;;;5047321;28;20094;-77
2022/04/24 11:50:14;;;;;;;4.30;2.25;;;;;;;;;;5042421;28;20120;-78
2022/04/24 11:52:44;;;;;;;4.15;2.22;;;;;;;;;;5044419;28;20420;-77
2022/04/24 11:55:11;;;;;;;8.25;4.00;;;11.00;99.90;;;;;;5047302;28;20108;-78
2022/04/24 11:57:37;;;;;;;10.10;4.22;;;;;;;;;;5040906;28;20025;-79
2022/04/24 12:00:05;;;;;;;8.63;4.25;;;;;;;;;;5046303;28;20036;-79
2022/04/24 12:02:31;;;;;;;6.88;2.90;;;;;;;;;;5042323;28;20511;-80
2022/04/24 12:04:57;;;;;;;14.00;5.65;;;;;;;;;;5052306;28;20108;-79
2022/04/24 12:07:31;;;;;;;10.30;4.97;;;;;;;;;;5045634;28;20025;-79
2022/04/24 12:09:57;;;;;;;;;;;;;;;;;;5043447;28;20036;-79
2022/04/24 12:12:23;;;;;;;8.55;4.05;;;;;;;;;;5044194;28;20111;-79
2022/04/24 12:14:49;;;;;;;6.28;3.33;;;;;;;;;;5047455;28;20472;-78
2022/04/24 12:17:15;;;;;;;5.15;3.00;;;;;;;;;;5033331;28;20061;-79
2022/04/24 12:19:49;;;;;;;5.93;3.15;;;;;;;;;;5034957;28;20017;-79
2022/04/24 12:22:14;;;;;;;7.30;3.88;;;;;;;;;;5044605;28;20053;-78
2022/04/24 12:24:44;;;;;;;6.32;3.78;;;;;;;;;;5039235;28;20064;-79
2022/04/24 12:27:13;;;;;;;7.53;2.95;;;;;;;;;;5045995;28;20381;-79
2022/04/24 12:29:49;;;;;;;6.90;3.78;;;;;;;;;;5039153;28;20576;-78
2022/04/24 12:32:15;;;;;;;4.78;2.70;;;;;;;;;;5043727;28;20047;-79
2022/04/24 12:34:45;;;;;;;4.75;2.42;;;;;;;;;;5043387;28;20418;-80
2022/04/24 12:37:15;;;;;;;6.05;3.35;;;;;;;;;;5047730;28;20103;-78
2022/04/24 12:39:41;;;;;;;6.43;3.10;;;;;;;;;;5048273;28;20056;-79
2022/04/24 12:42:17;;;;;;;7.03;3.17;;;;;;;;;;5048059;28;20029;-79
2022/04/24 12:44:43;;;;;;;9.27;4.28;;;;;;;;;;5041099;28;20028;-79
2022/04/24 12:47:09;;;;;;;6.75;3.03;;;;;;;;;;5042655;28;20025;-79
2022/04/24 12:49:35;;;;;;;5.85;3.70;;;;;;;;;;5047593;28;20250;-79
2022/04/24 12:52:01;;;;;;;11.35;6.95;;;;;;;;;;5044343;28;20589;-79
2022/04/24 12:54:27;;;;;;;19.98;10.00;;;;;;;;;;5043961;28;20075;-79
2022/04/24 12:56:53;;;;;;;8.48;4.50;;;;;;;;;;5049834;28;20053;-79
2022/04/24 12:59:19;;;;;;;9.38;4.25;;;;;;;;;;5046305;28;20041;-79
2022/04/24 13:01:45;;;;;;;10.25;4.45;;;;;;;;;;5046232;28;20056;-80
2022/04/24 13:04:11;;;;;;;7.28;2.95;;;;;;;;;;5053676;28;20025;-79
2022/04/24 13:06:37;;;;;;;6.47;3.70;;;;;;;;;;5050098;28;20033;-79
2022/04/24 13:09:10;;;;;;;7.00;3.50;;;;;;;;;;5057177;28;20040;-80
2022/04/24 13:11:36;;;;;;;7.03;3.58;;;;;;;;;;5058489;28;20044;-79
2022/04/24 13:14:02;;;;;;;5.95;3.30;;;;;;;;;;5053345;28;20029;-81
2022/04/24 13:19:13;;;;;;;13.13;5.20;;;;;;;;;;5051746;28;20036;-78
2022/04/24 13:21:39;;;;;;;7.35;3.58;;;11.90;99.90;;;;;;5043086;28;20037;-78
2022/04/24 13:24:05;;;;;;;10.13;5.03;;;;;;;;;;5047256;28;20021;-78
2022/04/24 13:26:32;;;;;;;7.70;4.78;;;;;;;;;;5050323;28;20044;-78
2022/04/24 13:28:58;;;;;;;7.63;4.22;;;;;;;;;;5050804;28;20021;-78
2022/04/24 13:31:24;;;;;;;8.75;5.10;;;;;;;;;;5046135;28;20041;-78
2022/04/24 13:33:50;;;;;;;8.82;3.97;;;;;;;;;;5049658;28;20447;-78
2022/04/24 13:36:16;;;;;;;7.63;4.10;;;;;;;;;;5057434;28;20033;-78
2022/04/24 13:38:44;;;;;;;8.15;4.18;;;;;;;;;;5053616;28;20021;-78
2022/04/24 13:41:10;;;;;;;9.82;4.60;;;;;;;;;;5060611;28;20024;-78
2022/04/24 13:43:36;;;;;;;6.05;3.33;;;;;;;;;;5062917;28;20116;-78
2022/04/24 13:46:05;;;;;;;8.75;4.32;;;;;;;;;;5057909;28;20044;-78
2022/04/24 13:48:31;;;;;;;9.48;3.80;;;;;;;;;;5060877;28;20107;-78
2022/04/24 13:50:58;;;;;;;7.60;4.40;;;;;;;;;;5058237;28;20507;-77
2022/04/24 13:53:25;;;;;;;5.45;4.00;;;;;;;;;;5052899;28;20045;-77
2022/04/24 13:55:51;;;;;;;7.82;4.07;;;;;;;;;;5053473;28;20118;-77
2022/04/24 13:58:17;;;;;;;9.75;5.22;;;;;;;;;;5048540;28;20033;-78
2022/04/24 14:00:44;;;;;;;9.73;4.90;;;;;;;;;;5056511;28;20079;-78
2022/04/24 14:03:12;;;;;;;9.05;4.32;;;;;;;;;;5052845;28;20033;-78
2022/04/24 14:05:38;;;;;;;10.48;4.30;;;;;;;;;;5055567;28;20030;-78
2022/04/24 14:08:04;;;;;;;13.05;5.70;;;;;;;;;;5050382;28;20132;-78
2022/04/24 14:10:30;;;;;;;8.93;4.45;;;;;;;;;;5046780;28;20025;-78
2022/04/24 14:12:56;;;;;;;6.93;3.97;;;;;;;;;;5051830;28;20036;-78
2022/04/24 14:15:25;;;;;;;9.93;4.82;;;;;;;;;;5050908;28;20116;-78
2022/04/24 14:17:55;;;;;;;9.40;4.72;;;;;;;;;;5053409;28;20056;-77
2022/04/24 14:20:21;;;;;;;9.02;4.22;;;11.50;99.90;;;;;;5047111;28;20029;-78
2022/04/24 14:22:47;;;;;;;6.47;3.72;;;10.60;99.90;;;;;;5049779;28;20428;-78
2022/04/24 14:25:13;;;;;;;9.57;4.68;;;;;;;;;;5050742;28;20040;-77
2022/04/24 14:27:39;;;;;;;7.28;4.18;;;;;;;;;;5051606;28;20054;-78
2022/04/24 14:30:07;;;;;;;11.57;5.25;;;;;;;;;;5047434;28;20029;-78
2022/04/24 14:32:33;;;;;;;9.70;5.03;;;;;;;;;;5048949;28;20059;-77
2022/04/24 14:34:59;;;;;;;10.40;4.47;;;;;;;;;;5053736;28;20078;-78
2022/04/24 14:37:25;;;;;;;10.77;4.90;;;;;;;;;;5046916;28;20089;-78
2022/04/24 14:39:51;;;;;;;8.95;4.20;;;;;;;;;;5047075;28;20036;-77
2022/04/24 14:42:16;;;;;;;10.65;5.50;;;;;;;;;;5043000;28;20017;-78
2022/04/24 14:44:42;;;;;;;7.65;4.05;;;;;;;;;;5047935;28;20071;-78